createdAt,value
2023-05-07T00:00:22.750Z,4.00
2023-05-07T00:01:22.725Z,4.00
2023-05-07T00:02:22.783Z,4.00
2023-05-07T00:03:22.881Z,4.00
2023-05-07T00:04:22.784Z,4.00
2023-05-07T00:05:22.707Z,4.00
2023-05-07T00:06:22.687Z,4.00
2023-05-07T00:07:22.674Z,4.00
2023-05-07T00:08:22.640Z,4.00
2023-05-07T00:09:22.634Z,4.00
2023-05-07T00:10:22.634Z,4.00
2023-05-07T00:11:22.618Z,4.00
2023-05-07T00:12:22.596Z,4.00
2023-05-07T00:13:22.711Z,4.00
2023-05-07T00:14:22.562Z,4.00
2023-05-07T00:15:22.568Z,4.00
2023-05-07T00:16:22.626Z,4.00
2023-05-07T00:17:22.533Z,4.00
2023-05-07T00:18:22.533Z,4.00
2023-05-07T00:19:22.499Z,4.00
2023-05-07T00:20:22.507Z,4.00
2023-05-07T00:21:22.476Z,4.00
2023-05-07T00:22:22.459Z,4.00
2023-05-07T00:23:22.459Z,4.00
2023-05-07T00:24:21.499Z,4.00
2023-05-07T00:25:22.430Z,4.00
2023-05-07T00:26:22.404Z,4.00
2023-05-07T00:27:23.390Z,4.00
2023-05-07T00:28:22.410Z,4.00
2023-05-07T00:29:21.406Z,4.00
2023-05-07T00:30:21.428Z,4.00
2023-05-07T00:31:22.398Z,4.00
2023-05-07T00:32:22.417Z,4.00
2023-05-07T00:33:22.332Z,4.00
2023-05-07T00:34:22.318Z,4.00
2023-05-07T00:35:22.330Z,4.00
2023-05-07T00:36:22.270Z,4.00
2023-05-07T00:37:22.249Z,4.00
2023-05-07T00:38:22.216Z,4.00
2023-05-07T00:39:22.221Z,4.00
2023-05-07T00:40:22.227Z,4.00
2023-05-07T00:41:22.229Z,4.00
2023-05-07T00:42:22.226Z,4.00
2023-05-07T00:43:22.188Z,4.00
2023-05-07T00:44:22.151Z,4.00
2023-05-07T00:45:22.168Z,4.00
2023-05-07T00:46:22.231Z,4.00
2023-05-07T00:47:22.212Z,4.00
2023-05-07T00:48:22.128Z,4.00
2023-05-07T00:49:22.113Z,4.00
2023-05-07T00:50:22.087Z,4.00
2023-05-07T00:51:22.111Z,4.00
2023-05-07T00:52:22.071Z,4.00
2023-05-07T00:53:22.044Z,4.00
2023-05-07T00:54:22.034Z,4.00
2023-05-07T00:55:22.037Z,4.00
2023-05-07T00:56:22.446Z,4.00
2023-05-07T00:57:21.980Z,0.00
2023-05-07T00:58:21.974Z,0.00
2023-05-07T00:59:21.982Z,0.00
2023-05-07T01:00:21.942Z,4.00
2023-05-07T01:01:21.461Z,0.00
2023-05-07T01:02:21.946Z,0.00
2023-05-07T01:03:21.913Z,0.00
2023-05-07T01:04:21.902Z,0.00
2023-05-07T01:05:21.907Z,0.00
2023-05-07T01:06:21.873Z,0.00
2023-05-07T01:07:21.854Z,0.00
2023-05-07T01:08:21.841Z,0.00
2023-05-07T01:09:21.813Z,0.00
2023-05-07T01:10:21.803Z,0.00
2023-05-07T01:11:21.805Z,0.00
2023-05-07T01:12:21.801Z,0.00
2023-05-07T01:13:21.906Z,0.00
2023-05-07T01:14:21.780Z,0.00
2023-05-07T01:15:21.765Z,0.00
2023-05-07T01:16:21.793Z,0.00
2023-05-07T01:17:21.948Z,0.00
2023-05-07T01:18:21.698Z,0.00
2023-05-07T01:19:21.713Z,0.00
2023-05-07T01:20:21.736Z,0.00
2023-05-07T01:21:21.652Z,0.00
2023-05-07T01:22:21.676Z,0.00
2023-05-07T01:23:21.624Z,0.00
2023-05-07T01:24:21.629Z,0.00
2023-05-07T01:25:21.654Z,0.00
2023-05-07T01:26:21.589Z,0.00
2023-05-07T01:27:21.571Z,0.00
2023-05-07T01:28:21.563Z,0.00
2023-05-07T01:29:21.582Z,0.00
2023-05-07T01:30:21.562Z,0.00
2023-05-07T01:31:21.598Z,0.00
2023-05-07T01:32:21.550Z,0.00
2023-05-07T01:33:21.512Z,0.00
2023-05-07T01:34:21.528Z,0.00
2023-05-07T01:35:21.578Z,0.00
2023-05-07T01:36:21.446Z,0.00
2023-05-07T01:37:21.433Z,0.00
2023-05-07T01:38:21.436Z,0.00
2023-05-07T01:39:21.443Z,0.00
2023-05-07T01:40:20.901Z,0.00
2023-05-07T01:41:21.407Z,0.00
2023-05-07T01:42:21.472Z,0.00
2023-05-07T01:43:21.373Z,0.00
2023-05-07T01:44:21.354Z,0.00
2023-05-07T01:45:21.327Z,0.00
2023-05-07T01:46:21.330Z,0.00
2023-05-07T01:47:21.382Z,0.00
2023-05-07T01:48:21.287Z,0.00
2023-05-07T01:49:21.306Z,0.00
2023-05-07T01:50:21.259Z,0.00
2023-05-07T01:51:21.256Z,0.00
2023-05-07T01:52:21.252Z,0.00
2023-05-07T01:53:21.239Z,0.00
2023-05-07T01:54:21.240Z,0.00
2023-05-07T01:55:20.712Z,0.00
2023-05-07T01:56:21.218Z,0.00
2023-05-07T01:57:20.685Z,0.00
2023-05-07T01:58:20.664Z,0.00
2023-05-07T01:59:20.634Z,0.00
2023-05-07T02:00:21.117Z,0.00
2023-05-07T02:01:21.209Z,0.00
2023-05-07T02:02:20.670Z,0.00
2023-05-07T02:03:21.181Z,0.00
2023-05-07T02:04:21.074Z,0.00
2023-05-07T02:05:21.045Z,0.00
2023-05-07T02:06:21.058Z,0.00
2023-05-07T02:07:21.008Z,0.00
2023-05-07T02:08:21.006Z,0.00
2023-05-07T02:09:21.018Z,0.00
2023-05-07T02:10:21.016Z,0.00
2023-05-07T02:11:21.021Z,0.00
2023-05-07T02:12:20.975Z,0.00
2023-05-07T02:13:21.035Z,0.00
2023-05-07T02:14:20.956Z,0.00
2023-05-07T02:15:20.943Z,0.00
2023-05-07T02:16:21.044Z,0.00
2023-05-07T02:17:20.894Z,0.00
2023-05-07T02:18:20.881Z,0.00
2023-05-07T02:19:20.872Z,0.00
2023-05-07T02:20:20.848Z,0.00
2023-05-07T02:21:20.834Z,0.00
2023-05-07T02:22:20.827Z,0.00
2023-05-07T02:23:20.800Z,0.00
2023-05-07T02:24:20.798Z,4.00
2023-05-07T02:25:20.831Z,4.00
2023-05-07T02:26:20.293Z,4.00
2023-05-07T02:27:20.771Z,4.00
2023-05-07T02:28:20.733Z,4.00
2023-05-07T02:29:20.758Z,4.00
2023-05-07T02:30:20.768Z,4.00
2023-05-07T02:31:20.767Z,4.00
2023-05-07T02:32:20.694Z,4.00
2023-05-07T02:33:20.711Z,4.00
2023-05-07T02:34:20.688Z,4.00
2023-05-07T02:35:20.655Z,4.00
2023-05-07T02:36:20.687Z,4.00
2023-05-07T02:37:20.630Z,4.00
2023-05-07T02:38:20.605Z,4.00
2023-05-07T02:39:19.649Z,4.00
2023-05-07T02:40:19.631Z,4.00
2023-05-07T02:41:19.625Z,4.00
2023-05-07T02:42:20.622Z,4.00
2023-05-07T02:43:20.542Z,4.00
2023-05-07T02:44:20.550Z,4.00
2023-05-07T02:45:20.556Z,4.00
2023-05-07T02:46:20.569Z,4.00
2023-05-07T02:47:20.538Z,4.00
2023-05-07T02:48:20.495Z,4.00
2023-05-07T02:49:20.510Z,4.00
2023-05-07T02:50:20.481Z,4.00
2023-05-07T02:51:20.447Z,4.00
2023-05-07T02:52:20.405Z,4.00
2023-05-07T02:53:20.415Z,4.00
2023-05-07T02:54:19.899Z,4.00
2023-05-07T02:55:19.353Z,4.00
2023-05-07T02:56:19.851Z,4.00
2023-05-07T02:57:20.373Z,4.00
2023-05-07T02:58:20.334Z,4.00
2023-05-07T02:59:20.322Z,4.00
2023-05-07T03:00:20.325Z,4.00
2023-05-07T03:01:20.345Z,4.00
2023-05-07T03:02:20.321Z,4.00
2023-05-07T03:03:20.291Z,4.00
2023-05-07T03:04:20.282Z,4.00
2023-05-07T03:05:20.252Z,4.00
2023-05-07T03:06:20.252Z,4.00
2023-05-07T03:07:20.233Z,4.00
2023-05-07T03:08:20.227Z,4.00
2023-05-07T03:09:20.218Z,4.00
2023-05-07T03:10:20.161Z,4.00
2023-05-07T03:11:20.196Z,4.00
2023-05-07T03:12:20.153Z,4.00
2023-05-07T03:13:20.253Z,4.00
2023-05-07T03:14:20.133Z,4.00
2023-05-07T03:15:20.116Z,4.00
2023-05-07T03:16:20.149Z,4.00
2023-05-07T03:17:20.082Z,4.00
2023-05-07T03:18:20.127Z,0.00
2023-05-07T03:19:20.072Z,0.00
2023-05-07T03:20:19.827Z,0.00
2023-05-07T03:21:20.074Z,0.00
2023-05-07T03:22:20.052Z,4.00
2023-05-07T03:23:20.137Z,4.00
2023-05-07T03:24:19.996Z,4.00
2023-05-07T03:25:19.973Z,0.00
2023-05-07T03:26:19.961Z,4.00
2023-05-07T03:27:19.925Z,4.00
2023-05-07T03:28:19.939Z,4.00
2023-05-07T03:29:19.950Z,8.00
2023-05-07T03:30:20.055Z,4.00
2023-05-07T03:31:19.937Z,8.00
2023-05-07T03:32:19.995Z,8.00
2023-05-07T03:33:19.861Z,8.00
2023-05-07T03:34:19.855Z,8.00
2023-05-07T03:35:19.851Z,12.00
2023-05-07T03:36:19.827Z,16.00
2023-05-07T03:37:19.830Z,16.00
2023-05-07T03:38:19.808Z,16.00
2023-05-07T03:39:19.783Z,20.00
2023-05-07T03:40:19.772Z,20.00
2023-05-07T03:41:19.738Z,24.00
2023-05-07T03:42:19.736Z,32.00
2023-05-07T03:43:19.725Z,36.00
2023-05-07T03:44:19.695Z,40.00
2023-05-07T03:45:19.701Z,44.00
2023-05-07T03:46:19.778Z,52.00
2023-05-07T03:47:19.674Z,56.00
2023-05-07T03:48:19.657Z,68.00
2023-05-07T03:49:19.673Z,76.00
2023-05-07T03:50:19.635Z,92.00
2023-05-07T03:51:19.617Z,108.00
2023-05-07T03:52:19.615Z,124.00
2023-05-07T03:53:19.587Z,136.00
2023-05-07T03:54:19.595Z,144.00
2023-05-07T03:55:19.582Z,156.00
2023-05-07T03:56:19.784Z,164.00
2023-05-07T03:57:19.552Z,176.00
2023-05-07T03:58:19.518Z,196.00
2023-05-07T03:59:19.546Z,208.00
2023-05-07T04:00:19.506Z,224.00
2023-05-07T04:01:19.479Z,244.00
2023-05-07T04:02:19.500Z,264.00
2023-05-07T04:03:19.587Z,288.00
2023-05-07T04:04:19.623Z,308.00
2023-05-07T04:05:19.454Z,340.00
2023-05-07T04:06:19.412Z,368.00
2023-05-07T04:07:17.950Z,400.00
2023-05-07T04:08:19.387Z,436.00
2023-05-07T04:09:19.391Z,480.00
2023-05-07T04:10:19.361Z,520.00
2023-05-07T04:11:19.351Z,568.00
2023-05-07T04:12:19.364Z,616.00
2023-05-07T04:13:19.432Z,668.00
2023-05-07T04:14:19.302Z,720.00
2023-05-07T04:15:19.303Z,776.00
2023-05-07T04:16:18.368Z,828.00
2023-05-07T04:17:19.283Z,884.00
2023-05-07T04:18:19.283Z,944.00
2023-05-07T04:19:19.249Z,1016.00
2023-05-07T04:20:19.257Z,1076.00
2023-05-07T04:21:19.230Z,1152.00
2023-05-07T04:22:19.200Z,1232.00
2023-05-07T04:23:18.263Z,1312.00
2023-05-07T04:24:19.169Z,1396.00
2023-05-07T04:25:19.165Z,1480.00
2023-05-07T04:26:19.186Z,1560.00
2023-05-07T04:27:19.154Z,1632.00
2023-05-07T04:28:19.124Z,1696.00
2023-05-07T04:29:19.101Z,1760.00
2023-05-07T04:30:19.097Z,1816.00
2023-05-07T04:31:19.084Z,1864.00
2023-05-07T04:32:19.093Z,1896.00
2023-05-07T04:33:19.046Z,1924.00
2023-05-07T04:34:19.072Z,1940.00
2023-05-07T04:35:19.028Z,1968.00
2023-05-07T04:36:19.026Z,2004.00
2023-05-07T04:37:19.005Z,2044.00
2023-05-07T04:38:18.981Z,2100.00
2023-05-07T04:39:18.962Z,2160.00
2023-05-07T04:40:18.946Z,2220.00
2023-05-07T04:41:18.950Z,2296.00
2023-05-07T04:42:18.925Z,2368.00
2023-05-07T04:43:18.909Z,2456.00
2023-05-07T04:44:18.892Z,2552.00
2023-05-07T04:45:18.869Z,2656.00
2023-05-07T04:46:18.914Z,2776.00
2023-05-07T04:47:18.858Z,2904.00
2023-05-07T04:48:18.830Z,3040.00
2023-05-07T04:49:18.827Z,3184.00
2023-05-07T04:50:18.820Z,3324.00
2023-05-07T04:51:18.822Z,3452.00
2023-05-07T04:52:18.784Z,3560.00
2023-05-07T04:53:18.806Z,3672.00
2023-05-07T04:54:18.745Z,3808.00
2023-05-07T04:55:18.761Z,3968.00
2023-05-07T04:56:18.735Z,4136.00
2023-05-07T04:57:18.715Z,4292.00
2023-05-07T04:58:18.697Z,4452.00
2023-05-07T04:59:18.692Z,4608.00
2023-05-07T05:00:18.709Z,4768.00
2023-05-07T05:01:17.778Z,4948.00
2023-05-07T05:02:20.600Z,5140.00
2023-05-07T05:03:17.780Z,5348.00
2023-05-07T05:04:18.679Z,5588.00
2023-05-07T05:05:18.627Z,5840.00
2023-05-07T05:06:18.600Z,6076.00
2023-05-07T05:07:18.580Z,6320.00
2023-05-07T05:08:18.645Z,6500.00
2023-05-07T05:09:18.554Z,6656.00
2023-05-07T05:10:18.555Z,6776.00
2023-05-07T05:11:18.537Z,6884.00
2023-05-07T05:12:18.501Z,6976.00
2023-05-07T05:13:18.619Z,7040.00
2023-05-07T05:14:18.500Z,7072.00
2023-05-07T05:15:18.496Z,7148.00
2023-05-07T05:16:18.518Z,7188.00
2023-05-07T05:17:18.437Z,7148.00
2023-05-07T05:18:18.446Z,7168.00
2023-05-07T05:19:17.721Z,7220.00
2023-05-07T05:20:18.440Z,7316.00
2023-05-07T05:21:18.412Z,7388.00
2023-05-07T05:22:18.412Z,7472.00
2023-05-07T05:23:17.450Z,7536.00
2023-05-07T05:24:18.364Z,7552.00
2023-05-07T05:25:18.356Z,7500.00
2023-05-07T05:26:18.346Z,7448.00
2023-05-07T05:27:18.330Z,7384.00
2023-05-07T05:28:18.310Z,7352.00
2023-05-07T05:29:18.276Z,7372.00
2023-05-07T05:30:18.281Z,7436.00
2023-05-07T05:31:18.286Z,7628.00
2023-05-07T05:32:18.249Z,7892.00
2023-05-07T05:33:18.251Z,8232.00
2023-05-07T05:34:18.214Z,8636.00
2023-05-07T05:35:18.191Z,9044.00
2023-05-07T05:36:18.179Z,9424.00
2023-05-07T05:37:18.194Z,9784.00
2023-05-07T05:38:18.168Z,10032.00
2023-05-07T05:39:18.145Z,10264.00
2023-05-07T05:40:18.132Z,10508.00
2023-05-07T05:41:18.120Z,10640.00
2023-05-07T05:42:18.118Z,10780.00
2023-05-07T05:43:18.116Z,10884.00
2023-05-07T05:44:18.078Z,10976.00
2023-05-07T05:45:18.074Z,11040.00
2023-05-07T05:46:18.159Z,11020.00
2023-05-07T05:47:18.063Z,10920.00
2023-05-07T05:48:18.071Z,10776.00
2023-05-07T05:49:18.036Z,10556.00
2023-05-07T05:50:17.993Z,10304.00
2023-05-07T05:51:17.989Z,10112.00
2023-05-07T05:52:18.000Z,10080.00
2023-05-07T05:53:17.968Z,10284.00
2023-05-07T05:54:17.961Z,10644.00
2023-05-07T05:55:17.924Z,11080.00
2023-05-07T05:56:17.924Z,11500.00
2023-05-07T05:57:17.897Z,11816.00
2023-05-07T05:58:17.910Z,12032.00
2023-05-07T05:59:17.911Z,12164.00
2023-05-07T06:00:17.876Z,12204.00
2023-05-07T06:01:17.861Z,12236.00
2023-05-07T06:02:17.843Z,12252.00
2023-05-07T06:03:17.846Z,12332.00
2023-05-07T06:04:17.797Z,12484.00
2023-05-07T06:05:17.871Z,12692.00
2023-05-07T06:06:17.775Z,12940.00
2023-05-07T06:07:17.757Z,13080.00
2023-05-07T06:08:17.751Z,13084.00
2023-05-07T06:09:17.759Z,13056.00
2023-05-07T06:10:17.732Z,13044.00
2023-05-07T06:11:17.709Z,13052.00
2023-05-07T06:12:17.709Z,13040.00
2023-05-07T06:13:17.731Z,13076.00
2023-05-07T06:14:17.653Z,13168.00
2023-05-07T06:15:17.685Z,13340.00
2023-05-07T06:16:17.669Z,13620.00
2023-05-07T06:17:19.494Z,13964.00
2023-05-07T06:18:17.622Z,14316.00
2023-05-07T06:19:17.629Z,14684.00
2023-05-07T06:20:17.597Z,15044.00
2023-05-07T06:21:17.593Z,15400.00
2023-05-07T06:22:17.568Z,15716.00
2023-05-07T06:23:18.185Z,16016.00
2023-05-07T06:24:17.572Z,16340.00
2023-05-07T06:25:17.526Z,16896.00
2023-05-07T06:26:17.498Z,17312.00
2023-05-07T06:27:17.481Z,17728.00
2023-05-07T06:28:17.466Z,18208.00
2023-05-07T06:29:17.467Z,18560.00
2023-05-07T06:30:17.458Z,18976.00
2023-05-07T06:31:17.570Z,19488.00
2023-05-07T06:32:16.467Z,19776.00
2023-05-07T06:33:16.481Z,20192.00
2023-05-07T06:34:17.397Z,20192.00
2023-05-07T06:35:16.398Z,20608.00
2023-05-07T06:36:17.459Z,21312.00
2023-05-07T06:37:17.347Z,22208.00
2023-05-07T06:38:17.352Z,22336.00
2023-05-07T06:39:17.330Z,22784.00
2023-05-07T06:40:17.308Z,23296.00
2023-05-07T06:41:17.493Z,23808.00
2023-05-07T06:42:17.277Z,24288.00
2023-05-07T06:43:17.283Z,25024.00
2023-05-07T06:44:17.261Z,26624.00
2023-05-07T06:45:17.234Z,26208.00
2023-05-07T06:46:17.280Z,26720.00
2023-05-07T06:47:17.237Z,29632.00
2023-05-07T06:48:17.202Z,29728.00
2023-05-07T06:49:17.222Z,30560.00
2023-05-07T06:50:17.176Z,30656.00
2023-05-07T06:51:17.162Z,30304.00
2023-05-07T06:52:17.176Z,27296.00
2023-05-07T06:53:17.129Z,24064.00
2023-05-07T06:54:17.116Z,20608.00
2023-05-07T06:55:17.103Z,18656.00
2023-05-07T06:56:17.090Z,17600.00
2023-05-07T06:57:17.095Z,17344.00
2023-05-07T06:58:17.073Z,17536.00
2023-05-07T06:59:17.044Z,17984.00
2023-05-07T07:00:17.033Z,18464.00
2023-05-07T07:01:17.042Z,18944.00
2023-05-07T07:02:18.319Z,19328.00
2023-05-07T07:03:16.993Z,19360.00
2023-05-07T07:04:17.102Z,19456.00
2023-05-07T07:05:16.957Z,20128.00
2023-05-07T07:06:16.981Z,19424.00
2023-05-07T07:07:16.927Z,19552.00
2023-05-07T07:08:16.921Z,20128.00
2023-05-07T07:09:16.889Z,20192.00
2023-05-07T07:10:16.243Z,20224.00
2023-05-07T07:11:16.889Z,20320.00
2023-05-07T07:12:16.866Z,20736.00
2023-05-07T07:13:16.920Z,20768.00
2023-05-07T07:14:16.818Z,20640.00
2023-05-07T07:15:16.839Z,20672.00
2023-05-07T07:16:17.017Z,20800.00
2023-05-07T07:17:16.783Z,21248.00
2023-05-07T07:18:16.768Z,21504.00
2023-05-07T07:19:16.764Z,21632.00
2023-05-07T07:20:16.981Z,22112.00
2023-05-07T07:21:16.761Z,22272.00
2023-05-07T07:22:16.870Z,22592.00
2023-05-07T07:23:16.714Z,22752.00
2023-05-07T07:24:16.701Z,22880.00
2023-05-07T07:25:16.831Z,23072.00
2023-05-07T07:26:16.682Z,23328.00
2023-05-07T07:27:16.649Z,23584.00
2023-05-07T07:28:16.676Z,23904.00
2023-05-07T07:29:16.630Z,24224.00
2023-05-07T07:30:16.611Z,24704.00
2023-05-07T07:31:16.646Z,25184.00
2023-05-07T07:32:16.580Z,25728.00
2023-05-07T07:33:16.559Z,26272.00
2023-05-07T07:34:16.555Z,26688.00
2023-05-07T07:35:16.534Z,27680.00
2023-05-07T07:36:16.534Z,27424.00
2023-05-07T07:37:16.534Z,27712.00
2023-05-07T07:38:16.501Z,27520.00
2023-05-07T07:39:16.519Z,28096.00
2023-05-07T07:40:16.472Z,28064.00
2023-05-07T07:41:16.448Z,28096.00
2023-05-07T07:42:16.435Z,28096.00
2023-05-07T07:43:16.426Z,28512.00
2023-05-07T07:44:16.804Z,29376.00
2023-05-07T07:45:16.412Z,29824.00
2023-05-07T07:46:16.429Z,31072.00
2023-05-07T07:47:16.426Z,31968.00
2023-05-07T07:48:16.381Z,32608.00
2023-05-07T07:49:16.367Z,33248.00
2023-05-07T07:50:24.361Z,34272.00
2023-05-07T07:51:17.326Z,35904.00
2023-05-07T07:52:16.309Z,37280.00
2023-05-07T07:53:18.966Z,38016.00
2023-05-07T07:54:15.910Z,38688.00
2023-05-07T07:55:16.273Z,38880.00
2023-05-07T07:56:16.285Z,39136.00
2023-05-07T07:57:16.279Z,36032.00
2023-05-07T07:58:16.265Z,34368.00
2023-05-07T07:59:16.277Z,33792.00
2023-05-07T08:00:16.214Z,33536.00
2023-05-07T08:01:16.177Z,33536.00
2023-05-07T08:02:16.175Z,33696.00
2023-05-07T08:03:16.222Z,34080.00
2023-05-07T08:04:16.226Z,34752.00
2023-05-07T08:05:16.123Z,35712.00
2023-05-07T08:06:16.126Z,38272.00
2023-05-07T08:07:16.112Z,44064.00
2023-05-07T08:08:16.120Z,43008.00
2023-05-07T08:09:16.062Z,43584.00
2023-05-07T08:10:16.072Z,43200.00
2023-05-07T08:11:16.046Z,41504.00
2023-05-07T08:12:16.038Z,43168.00
2023-05-07T08:13:16.106Z,43072.00
2023-05-07T08:14:15.999Z,43424.00
2023-05-07T08:15:15.987Z,47904.00
2023-05-07T08:16:15.999Z,50432.00
2023-05-07T08:17:16.016Z,54912.00
2023-05-07T08:18:15.969Z,57728.00
2023-05-07T08:19:15.958Z,57280.00
2023-05-07T08:20:15.941Z,57024.00
2023-05-07T08:21:15.900Z,58112.00
2023-05-07T08:22:15.915Z,53920.00
2023-05-07T08:23:15.986Z,48000.00
2023-05-07T08:24:15.875Z,45024.00
2023-05-07T08:25:15.858Z,43488.00
2023-05-07T08:26:15.848Z,42848.00
2023-05-07T08:27:15.833Z,42656.00
2023-05-07T08:28:15.831Z,42784.00
2023-05-07T08:29:15.793Z,43264.00
2023-05-07T08:30:15.785Z,43712.00
2023-05-07T08:31:15.830Z,44096.00
2023-05-07T08:32:15.781Z,46144.00
2023-05-07T08:33:14.411Z,48640.00
2023-05-07T08:34:15.737Z,44128.00
2023-05-07T08:35:15.713Z,42368.00
2023-05-07T08:36:15.722Z,43296.00
2023-05-07T08:37:15.693Z,42624.00
2023-05-07T08:38:15.710Z,43008.00
2023-05-07T08:39:15.675Z,44672.00
2023-05-07T08:40:16.053Z,46272.00
2023-05-07T08:41:15.658Z,46336.00
2023-05-07T08:42:15.670Z,48480.00
2023-05-07T08:43:15.634Z,48640.00
2023-05-07T08:44:14.483Z,47232.00
2023-05-07T08:45:15.684Z,46496.00
2023-05-07T08:46:15.656Z,46016.00
2023-05-07T08:47:15.570Z,44960.00
2023-05-07T08:48:15.568Z,41792.00
2023-05-07T08:49:15.655Z,39744.00
2023-05-07T08:50:15.539Z,38496.00
2023-05-07T08:51:15.520Z,37984.00
2023-05-07T08:52:14.544Z,37696.00
2023-05-07T08:53:14.556Z,37664.00
2023-05-07T08:54:15.469Z,37760.00
2023-05-07T08:55:15.483Z,38848.00
2023-05-07T08:56:15.446Z,40480.00
2023-05-07T08:57:15.436Z,43552.00
2023-05-07T08:58:15.419Z,46336.00
2023-05-07T08:59:15.408Z,48160.00
2023-05-07T09:00:15.402Z,49888.00
2023-05-07T09:01:15.401Z,51232.00
2023-05-07T09:02:15.447Z,52544.00
2023-05-07T09:03:15.497Z,53696.00
2023-05-07T09:04:15.412Z,53568.00
2023-05-07T09:05:15.338Z,52544.00
2023-05-07T09:06:15.327Z,52352.00
2023-05-07T09:07:15.288Z,51392.00
2023-05-07T09:08:15.277Z,51552.00
2023-05-07T09:09:15.282Z,51616.00
2023-05-07T09:10:15.256Z,51968.00
2023-05-07T09:11:15.237Z,53024.00
2023-05-07T09:12:15.219Z,56032.00
2023-05-07T09:13:15.262Z,58880.00
2023-05-07T09:14:15.230Z,60928.00
2023-05-07T09:15:15.184Z,62784.00
2023-05-07T09:16:15.232Z,67200.00
2023-05-07T09:17:15.156Z,72032.00
2023-05-07T09:19:15.149Z,76352.00
2023-05-07T09:20:15.128Z,76640.00
2023-05-07T09:21:15.114Z,81472.00
2023-05-07T09:22:15.102Z,82816.00
2023-05-07T09:23:15.113Z,82784.00
2023-05-07T09:24:15.067Z,83232.00
2023-05-07T09:25:15.094Z,82592.00
2023-05-07T09:26:15.025Z,81952.00
2023-05-07T09:27:15.024Z,81600.00
2023-05-07T09:28:15.023Z,79776.00
2023-05-07T09:29:15.000Z,80064.00
2023-05-07T09:30:15.071Z,75488.00
2023-05-07T09:31:15.003Z,67168.00
2023-05-07T09:32:14.982Z,65440.00
2023-05-07T09:33:14.971Z,57120.00
2023-05-07T09:34:14.934Z,53408.00
2023-05-07T09:35:14.911Z,55680.00
2023-05-07T09:36:14.934Z,59392.00
2023-05-07T09:37:14.908Z,66336.00
2023-05-07T09:38:14.384Z,69088.00
2023-05-07T09:39:14.938Z,72448.00
2023-05-07T09:40:14.884Z,77696.00
2023-05-07T09:41:14.841Z,85568.00
2023-05-07T09:42:14.874Z,91840.00
2023-05-07T09:43:13.912Z,90752.00
2023-05-07T09:44:13.586Z,85280.00
2023-05-07T09:45:13.517Z,74464.00
2023-05-07T09:46:14.943Z,80192.00
2023-05-07T09:47:14.793Z,83072.00
2023-05-07T09:48:14.763Z,88928.00
2023-05-07T09:49:14.748Z,90144.00
2023-05-07T09:50:14.781Z,85600.00
2023-05-07T09:51:14.746Z,86272.00
2023-05-07T09:52:14.740Z,86944.00
2023-05-07T09:53:14.686Z,85568.00
2023-05-07T09:54:14.663Z,86688.00
2023-05-07T09:55:14.669Z,85120.00
2023-05-07T09:56:14.657Z,84320.00
2023-05-07T09:57:14.922Z,82912.00
2023-05-07T09:58:14.633Z,89504.00
2023-05-07T09:59:14.621Z,83520.00
2023-05-07T10:00:14.629Z,93792.00
2023-05-07T10:01:14.627Z,94976.00
2023-05-07T10:02:14.605Z,96928.00
2023-05-07T10:03:14.640Z,91232.00
2023-05-07T10:04:14.560Z,81856.00
2023-05-07T10:05:14.544Z,72224.00
2023-05-07T10:06:14.548Z,86336.00
2023-05-07T10:07:14.511Z,89632.00
2023-05-07T10:08:13.207Z,94688.00
2023-05-07T10:09:14.505Z,98496.00
2023-05-07T10:10:14.542Z,97344.00
2023-05-07T10:11:14.490Z,99008.00
2023-05-07T10:12:14.452Z,99456.00
2023-05-07T10:13:14.777Z,92672.00
2023-05-07T10:14:14.604Z,102688.00
2023-05-07T10:15:14.539Z,102080.00
2023-05-07T10:16:14.435Z,102624.00
2023-05-07T10:17:14.454Z,99552.00
2023-05-07T10:18:14.558Z,100736.00
2023-05-07T10:19:15.341Z,109536.00
2023-05-07T10:20:14.671Z,109984.00
2023-05-07T10:21:13.275Z,105120.00
2023-05-07T10:22:14.635Z,92352.00
2023-05-07T10:23:13.029Z,88800.00
2023-05-07T10:24:14.533Z,96832.00
2023-05-07T10:25:14.679Z,90688.00
2023-05-07T10:26:14.583Z,88000.00
2023-05-07T10:27:14.458Z,85376.00
2023-05-07T10:28:14.530Z,83136.00
2023-05-07T10:29:14.569Z,87744.00
2023-05-07T10:30:14.616Z,92288.00
2023-05-07T10:31:14.639Z,96832.00
2023-05-07T10:32:13.043Z,100704.00
2023-05-07T10:33:14.418Z,100768.00
2023-05-07T10:34:13.066Z,103232.00
2023-05-07T10:35:13.109Z,103840.00
2023-05-07T10:36:14.351Z,104288.00
2023-05-07T10:37:13.025Z,106976.00
2023-05-07T10:38:14.390Z,98432.00
2023-05-07T10:39:13.092Z,99072.00
2023-05-07T10:40:14.307Z,116192.00
2023-05-07T10:41:14.308Z,51296.00
2023-05-07T10:42:13.221Z,56992.00
2023-05-07T10:43:14.350Z,49632.00
2023-05-07T10:44:13.335Z,48800.00
2023-05-07T10:45:14.602Z,72896.00
2023-05-07T10:46:14.108Z,81376.00
2023-05-07T10:47:14.115Z,109728.00
2023-05-07T10:49:14.116Z,84768.00
2023-05-07T10:50:14.038Z,56352.00
2023-05-07T10:51:21.172Z,59232.00
2023-05-07T10:52:13.965Z,64640.00
2023-05-07T10:53:13.965Z,99456.00
2023-05-07T10:54:13.946Z,90112.00
2023-05-07T10:55:13.912Z,74720.00
2023-05-07T10:56:13.922Z,73376.00
2023-05-07T10:57:13.932Z,81664.00
2023-05-07T10:58:23.517Z,55040.00
2023-05-07T10:59:13.965Z,58400.00
2023-05-07T11:00:14.149Z,59488.00
2023-05-07T11:01:13.879Z,71584.00
2023-05-07T11:02:13.916Z,96448.00
2023-05-07T11:03:13.940Z,88672.00
2023-05-07T11:04:13.811Z,53408.00
2023-05-07T11:05:14.283Z,54976.00
2023-05-07T11:06:12.595Z,51296.00
2023-05-07T11:07:13.936Z,48320.00
2023-05-07T11:08:13.761Z,48224.00
2023-05-07T11:09:13.854Z,46432.00
2023-05-07T11:10:13.357Z,42592.00
2023-05-07T11:11:13.765Z,40544.00
2023-05-07T11:12:13.764Z,39200.00
2023-05-07T11:13:13.747Z,37856.00
2023-05-07T11:14:13.690Z,37312.00
2023-05-07T11:15:13.820Z,37152.00
2023-05-07T11:16:13.752Z,37120.00
2023-05-07T11:17:13.638Z,37312.00
2023-05-07T11:18:12.709Z,37888.00
2023-05-07T11:19:12.673Z,38432.00
2023-05-07T11:20:12.707Z,39040.00
2023-05-07T11:21:13.767Z,39776.00
2023-05-07T11:22:12.681Z,40704.00
2023-05-07T11:23:13.555Z,41824.00
2023-05-07T11:24:13.551Z,43200.00
2023-05-07T11:25:13.771Z,45088.00
2023-05-07T11:26:12.624Z,47424.00
2023-05-07T11:27:13.057Z,50976.00
2023-05-07T11:28:14.031Z,54944.00
2023-05-07T11:29:13.693Z,60288.00
2023-05-07T11:30:13.510Z,73472.00
2023-05-07T11:31:13.600Z,76896.00
2023-05-07T11:32:13.653Z,70816.00
2023-05-07T11:33:13.444Z,62304.00
2023-05-07T11:34:13.414Z,59008.00
2023-05-07T11:35:13.654Z,57600.00
2023-05-07T11:36:13.389Z,55232.00
2023-05-07T11:37:13.367Z,57248.00
2023-05-07T11:38:13.347Z,56480.00
2023-05-07T11:39:13.338Z,53792.00
2023-05-07T11:40:13.338Z,54016.00
2023-05-07T11:41:13.323Z,52544.00
2023-05-07T11:42:13.305Z,53280.00
2023-05-07T11:43:13.284Z,52288.00
2023-05-07T11:44:13.276Z,52704.00
2023-05-07T11:45:13.523Z,53152.00
2023-05-07T11:46:13.340Z,58784.00
2023-05-07T11:47:13.236Z,56384.00
2023-05-07T11:48:13.211Z,54432.00
2023-05-07T11:49:13.218Z,55392.00
2023-05-07T11:50:13.205Z,59104.00
2023-05-07T11:51:13.243Z,57632.00
2023-05-07T11:52:12.044Z,55936.00
2023-05-07T11:53:14.206Z,61664.00
2023-05-07T11:54:13.155Z,62080.00
2023-05-07T11:55:13.286Z,61536.00
2023-05-07T11:56:13.117Z,60960.00
2023-05-07T11:57:13.106Z,60032.00
2023-05-07T11:58:13.107Z,59648.00
2023-05-07T11:59:13.098Z,59200.00
2023-05-07T12:00:13.061Z,58912.00
2023-05-07T12:01:13.046Z,56544.00
2023-05-07T12:02:13.062Z,49856.00
2023-05-07T12:03:13.088Z,45856.00
2023-05-07T12:04:13.111Z,44320.00
2023-05-07T12:05:13.253Z,42720.00
2023-05-07T12:06:12.808Z,42112.00
2023-05-07T12:07:13.009Z,42240.00
2023-05-07T12:08:11.991Z,41984.00
2023-05-07T12:09:12.457Z,41664.00
2023-05-07T12:10:12.015Z,40864.00
2023-05-07T12:11:12.028Z,40160.00
2023-05-07T12:12:12.924Z,39616.00
2023-05-07T12:13:12.952Z,39328.00
2023-05-07T12:14:12.891Z,39328.00
2023-05-07T12:15:13.216Z,39104.00
2023-05-07T12:16:12.912Z,39136.00